createdAt,value
2019-03-20T00:00:18.895Z,12.10
2019-03-20T00:02:47.908Z,15.27
2019-03-20T00:05:16.762Z,15.00
2019-03-20T00:07:45.683Z,14.70
2019-03-20T00:10:15.043Z,13.03
2019-03-20T00:12:44.143Z,10.30
2019-03-20T00:15:13.099Z,11.77
2019-03-20T00:17:42.237Z,15.60
2019-03-20T00:20:11.870Z,18.10
2019-03-20T00:22:42.966Z,14.03
2019-03-20T00:25:11.989Z,15.80
2019-03-20T00:27:41.357Z,16.37
2019-03-20T00:30:11.827Z,16.33
2019-03-20T00:32:40.735Z,12.07
2019-03-20T00:35:10.039Z,17.43
2019-03-20T00:37:39.068Z,11.03
2019-03-20T00:40:09.200Z,19.67
2019-03-20T00:42:38.501Z,11.60
2019-03-20T00:45:08.745Z,10.00
2019-03-20T00:47:38.187Z,13.03
2019-03-20T00:50:09.533Z,10.33
2019-03-20T00:52:38.774Z,9.70
2019-03-20T00:55:08.006Z,6.93
2019-03-20T00:57:37.305Z,7.47
2019-03-20T01:00:09.082Z,7.20
2019-03-20T01:02:38.003Z,11.47
2019-03-20T01:05:12.723Z,11.10
2019-03-20T01:07:40.833Z,7.90
2019-03-20T01:10:11.520Z,11.70
2019-03-20T01:12:40.744Z,12.20
2019-03-20T01:15:09.985Z,7.73
2019-03-20T01:17:39.002Z,9.97
2019-03-20T01:20:09.131Z,7.97
2019-03-20T01:22:39.315Z,16.43
2019-03-20T01:25:10.854Z,13.80
2019-03-20T01:27:40.166Z,10.47
2019-03-20T01:30:12.089Z,10.33
2019-03-20T01:32:40.985Z,7.00
2019-03-20T01:35:10.225Z,14.27
2019-03-20T01:37:39.327Z,17.87
2019-03-20T01:40:08.612Z,10.80
2019-03-20T01:42:37.636Z,8.13
2019-03-20T01:45:06.685Z,6.57
2019-03-20T01:47:36.120Z,9.03
2019-03-20T01:50:05.561Z,14.63
2019-03-20T01:52:34.755Z,11.10
2019-03-20T01:55:04.084Z,11.27
2019-03-20T01:57:33.226Z,10.57
2019-03-20T02:00:02.081Z,14.00
2019-03-20T02:02:31.464Z,7.90
2019-03-20T02:08:41.370Z,9.60
2019-03-20T02:11:10.544Z,10.37
2019-03-20T02:13:39.832Z,10.57
2019-03-20T02:16:08.722Z,9.03
2019-03-20T02:19:11.524Z,8.60
2019-03-20T02:21:40.737Z,21.83
2019-03-20T02:24:10.019Z,9.07
2019-03-20T02:26:38.942Z,6.03
2019-03-20T02:29:08.126Z,8.00
2019-03-20T02:31:37.125Z,9.23
2019-03-20T02:34:06.326Z,10.20
2019-03-20T02:36:35.354Z,9.47
2019-03-20T02:39:06.345Z,8.27
2019-03-20T02:41:35.877Z,8.23
2019-03-20T02:44:05.443Z,6.30
2019-03-20T02:46:34.725Z,5.33
2019-03-20T02:49:06.746Z,4.90
2019-03-20T02:51:35.805Z,10.23
2019-03-20T02:54:04.961Z,14.00
2019-03-20T02:56:33.997Z,5.33
2019-03-20T02:59:03.520Z,8.53
2019-03-20T03:01:32.704Z,8.80
2019-03-20T03:04:01.636Z,8.47
2019-03-20T03:06:30.836Z,9.00
2019-03-20T03:09:00.002Z,11.33
2019-03-20T03:11:29.332Z,13.80
2019-03-20T03:13:58.649Z,10.50
2019-03-20T03:16:28.240Z,14.67
2019-03-20T03:18:57.075Z,12.97
2019-03-20T03:21:26.292Z,7.33
2019-03-20T03:23:55.585Z,12.67
2019-03-20T03:26:24.814Z,11.57
2019-03-20T03:28:53.912Z,10.63
2019-03-20T03:31:22.919Z,12.93
2019-03-20T03:33:51.761Z,13.00
2019-03-20T03:36:21.884Z,7.43
2019-03-20T03:38:51.363Z,7.07
2019-03-20T03:41:20.613Z,13.30
2019-03-20T03:47:22.809Z,8.63
2019-03-20T03:49:51.944Z,11.43
2019-03-20T03:52:21.736Z,16.00
2019-03-20T03:54:53.370Z,17.50
2019-03-20T04:00:54.801Z,11.03
2019-03-20T04:03:23.945Z,16.33
2019-03-20T04:05:52.892Z,17.10
2019-03-20T04:08:21.936Z,17.20
2019-03-20T04:10:50.965Z,17.70
2019-03-20T04:13:22.495Z,23.37
2019-03-20T04:15:51.457Z,20.73
2019-03-20T04:18:20.444Z,18.20
2019-03-20T04:20:49.574Z,23.50
2019-03-20T04:23:18.557Z,22.43
2019-03-20T04:25:47.553Z,21.03
2019-03-20T04:28:16.840Z,21.43
2019-03-20T04:30:45.647Z,20.07
2019-03-20T04:33:16.177Z,25.20
2019-03-20T04:35:45.124Z,25.43
2019-03-20T04:38:14.017Z,22.10
2019-03-20T04:40:43.225Z,26.57
2019-03-20T04:43:12.064Z,27.80
2019-03-20T04:45:41.084Z,26.53
2019-03-20T04:48:10.288Z,23.93
2019-03-20T04:50:39.117Z,27.10
2019-03-20T04:53:08.128Z,28.00
2019-03-20T04:55:37.376Z,27.87
2019-03-20T04:58:06.906Z,30.17
2019-03-20T05:00:36.118Z,25.90
2019-03-20T05:03:05.342Z,26.00
2019-03-20T05:05:34.598Z,26.30
2019-03-20T05:08:03.803Z,26.90
2019-03-20T05:10:33.001Z,29.97
2019-03-20T05:13:02.006Z,31.83
2019-03-20T05:15:30.917Z,33.87
2019-03-20T05:17:59.812Z,30.93
2019-03-20T05:20:28.886Z,31.00
2019-03-20T05:22:58.400Z,34.23
2019-03-20T05:25:28.091Z,33.80
2019-03-20T05:27:57.513Z,41.00
2019-03-20T05:30:26.663Z,35.77
2019-03-20T05:32:55.480Z,36.03
2019-03-20T05:35:24.786Z,34.47
2019-03-20T05:37:53.972Z,34.27
2019-03-20T05:40:23.666Z,41.50
2019-03-20T05:42:52.870Z,41.23
2019-03-20T05:45:22.086Z,41.63
2019-03-20T05:47:51.309Z,34.07
2019-03-20T05:50:20.470Z,41.00
2019-03-20T05:52:49.460Z,37.27
2019-03-20T05:55:18.711Z,38.00
2019-03-20T05:57:47.713Z,36.47
2019-03-20T06:00:17.556Z,39.60
2019-03-20T06:02:46.788Z,44.50
2019-03-20T06:05:16.112Z,42.47
2019-03-20T06:07:45.943Z,42.30
2019-03-20T06:10:15.297Z,43.47
2019-03-20T06:12:44.784Z,44.37
2019-03-20T06:15:14.719Z,44.73
2019-03-20T06:17:43.705Z,44.47
2019-03-20T06:20:13.372Z,49.37
2019-03-20T06:22:42.455Z,47.53
2019-03-20T06:25:11.638Z,42.83
2019-03-20T06:27:41.184Z,40.60
2019-03-20T06:30:12.958Z,43.20
2019-03-20T06:32:41.927Z,43.83
2019-03-20T06:35:10.960Z,41.70
2019-03-20T06:37:40.218Z,40.57
2019-03-20T06:40:09.870Z,42.90
2019-03-20T06:42:39.282Z,47.17
2019-03-20T06:45:10.498Z,46.70
2019-03-20T06:47:39.800Z,41.57
2019-03-20T06:50:12.281Z,48.97
2019-03-20T06:52:41.530Z,47.80
2019-03-20T06:55:11.146Z,50.43
2019-03-20T06:57:40.142Z,49.13
2019-03-20T07:00:37.153Z,50.30
2019-03-20T07:03:10.301Z,47.30
2019-03-20T07:06:00.412Z,44.60
2019-03-20T07:08:33.306Z,51.47
2019-03-20T07:11:11.511Z,48.93
2019-03-20T07:13:40.568Z,51.53
2019-03-20T07:16:09.583Z,52.53
2019-03-20T07:18:38.585Z,51.93
2019-03-20T07:21:07.523Z,48.60
2019-03-20T07:23:36.525Z,47.77
2019-03-20T07:26:05.669Z,47.27
2019-03-20T07:28:34.768Z,50.10
2019-03-20T07:31:14.240Z,50.37
2019-03-20T07:33:36.096Z,51.43
2019-03-20T07:36:05.744Z,50.63
2019-03-20T07:38:35.355Z,48.97
2019-03-20T07:41:04.654Z,49.83
2019-03-20T07:43:33.711Z,50.57
2019-03-20T07:46:03.006Z,51.37
2019-03-20T07:48:32.463Z,47.70
2019-03-20T07:51:01.647Z,52.10
2019-03-20T07:53:30.677Z,52.13
2019-03-20T07:56:00.279Z,56.13
2019-03-20T07:58:29.519Z,54.03
2019-03-20T08:00:58.400Z,55.50
2019-03-20T08:03:27.225Z,55.10
2019-03-20T08:05:56.309Z,57.67
2019-03-20T08:08:25.523Z,54.20
2019-03-20T08:10:54.848Z,49.90
2019-03-20T08:13:23.970Z,51.57
2019-03-20T08:15:52.786Z,52.63
2019-03-20T08:18:22.075Z,55.07
2019-03-20T08:20:51.154Z,50.47
2019-03-20T08:23:20.065Z,52.10
2019-03-20T08:25:49.131Z,51.23
2019-03-20T08:28:18.192Z,53.17
2019-03-20T08:30:47.098Z,49.07
2019-03-20T08:33:16.362Z,55.00
2019-03-20T08:35:45.560Z,50.83
2019-03-20T08:38:18.521Z,51.40
2019-03-20T08:40:45.669Z,58.43
2019-03-20T08:43:25.366Z,50.73
2019-03-20T08:45:54.562Z,53.40
2019-03-20T08:48:23.599Z,49.10
2019-03-20T08:50:52.973Z,44.60
2019-03-20T08:53:24.135Z,51.73
2019-03-20T08:55:53.414Z,52.80
2019-03-20T08:58:22.574Z,50.83
2019-03-20T09:00:51.653Z,47.77
2019-03-20T09:03:21.179Z,51.47
2019-03-20T09:05:50.438Z,43.00
2019-03-20T09:08:28.828Z,45.83
2019-03-20T09:10:50.769Z,51.73
2019-03-20T09:13:19.712Z,50.63
2019-03-20T09:15:48.642Z,54.00
2019-03-20T09:18:17.535Z,47.10
2019-03-20T09:20:46.822Z,49.90
2019-03-20T09:23:16.335Z,46.67
2019-03-20T09:25:45.274Z,49.20
2019-03-20T09:28:14.122Z,44.43
2019-03-20T09:30:43.748Z,48.30
2019-03-20T09:33:12.700Z,43.60
2019-03-20T09:35:41.679Z,49.57
2019-03-20T09:38:10.710Z,42.30
2019-03-20T09:40:40.419Z,46.50
2019-03-20T09:43:09.719Z,45.57
2019-03-20T09:45:39.769Z,45.60
2019-03-20T09:48:11.931Z,46.07
2019-03-20T09:50:41.772Z,45.93
2019-03-20T09:53:10.945Z,49.47
2019-03-20T09:55:43.180Z,45.17
2019-03-20T09:58:12.474Z,48.40
2019-03-20T10:00:41.915Z,48.20
2019-03-20T10:03:10.760Z,43.77
2019-03-20T10:05:39.653Z,48.83
2019-03-20T10:08:08.782Z,49.37
2019-03-20T10:10:38.047Z,48.60
2019-03-20T10:13:06.980Z,49.10
2019-03-20T10:15:36.660Z,46.37
2019-03-20T10:18:05.618Z,49.03
2019-03-20T10:20:34.582Z,52.60
2019-03-20T10:23:03.609Z,45.57
2019-03-20T10:25:43.910Z,52.50
2019-03-20T10:28:04.060Z,46.90
2019-03-20T10:30:33.175Z,52.17
2019-03-20T10:33:02.304Z,52.17
2019-03-20T10:35:33.596Z,53.80
2019-03-20T10:38:02.885Z,56.67
2019-03-20T10:40:31.780Z,53.13
2019-03-20T10:43:00.853Z,52.27
2019-03-20T10:45:30.095Z,50.30
2019-03-20T10:47:59.356Z,53.13
2019-03-20T10:50:28.352Z,57.33
2019-03-20T10:52:57.369Z,52.37
2019-03-20T10:55:26.700Z,61.73
2019-03-20T10:57:55.845Z,52.10
2019-03-20T11:00:25.094Z,55.70
2019-03-20T11:02:54.154Z,59.83
2019-03-20T11:05:23.410Z,52.97
2019-03-20T11:07:52.451Z,57.93
2019-03-20T11:10:25.049Z,56.73
2019-03-20T11:12:59.200Z,57.13
2019-03-20T11:15:29.794Z,54.33
2019-03-20T11:17:59.072Z,56.33
2019-03-20T11:20:28.226Z,59.67
2019-03-20T11:23:00.063Z,59.70
2019-03-20T11:25:41.781Z,59.10
2019-03-20T11:28:12.796Z,56.13
2019-03-20T11:30:43.978Z,57.97
2019-03-20T11:33:15.050Z,58.77
2019-03-20T11:35:47.424Z,57.67
2019-03-20T11:38:19.808Z,55.83
2019-03-20T11:40:50.736Z,56.13
2019-03-20T11:43:19.534Z,56.67
2019-03-20T11:45:48.648Z,56.03
2019-03-20T11:48:17.558Z,57.97
2019-03-20T11:50:46.549Z,55.97
2019-03-20T11:53:22.776Z,56.83
2019-03-20T11:56:09.028Z,56.73
2019-03-20T11:58:44.008Z,53.93
2019-03-20T12:01:22.793Z,59.23
2019-03-20T12:04:00.269Z,56.13
2019-03-20T12:06:33.508Z,62.80
2019-03-20T12:09:12.805Z,67.83
2019-03-20T12:11:46.144Z,65.83
2019-03-20T12:14:50.686Z,68.43
2019-03-20T12:17:38.779Z,66.97
2019-03-20T12:20:14.177Z,71.00
2019-03-20T12:22:56.305Z,73.30
2019-03-20T12:25:35.497Z,81.07
2019-03-20T12:28:07.632Z,74.97
2019-03-20T12:30:40.541Z,82.23
2019-03-20T12:33:13.840Z,83.73
2019-03-20T12:35:44.393Z,72.50
2019-03-20T12:38:15.721Z,82.57
2019-03-20T12:40:45.428Z,81.23
2019-03-20T12:43:15.006Z,73.83
2019-03-20T12:45:44.343Z,75.83
2019-03-20T12:48:13.472Z,81.97
2019-03-20T12:50:42.374Z,78.47
2019-03-20T12:53:12.570Z,76.80
2019-03-20T12:55:41.782Z,75.07
2019-03-20T12:58:11.041Z,74.03
2019-03-20T13:00:40.581Z,79.43
2019-03-20T13:03:09.750Z,77.87
2019-03-20T13:05:38.900Z,65.43
2019-03-20T13:08:08.222Z,74.13
2019-03-20T13:10:37.556Z,81.40
2019-03-20T13:13:06.594Z,79.50
2019-03-20T13:15:35.725Z,67.33
2019-03-20T13:18:04.975Z,72.47
2019-03-20T13:20:34.219Z,71.73
2019-03-20T13:23:11.207Z,69.20
2019-03-20T13:25:40.468Z,78.83
2019-03-20T13:28:09.526Z,70.90
2019-03-20T13:30:41.634Z,73.43
2019-03-20T13:33:11.014Z,77.23
2019-03-20T13:35:40.225Z,72.70
2019-03-20T13:38:09.346Z,82.73
2019-03-20T13:40:45.335Z,70.90
2019-03-20T13:43:15.103Z,75.73
2019-03-20T13:45:44.111Z,74.43
2019-03-20T13:48:14.646Z,66.90
2019-03-20T13:50:43.826Z,74.60
2019-03-20T13:53:15.225Z,70.70
2019-03-20T13:55:44.364Z,70.80
2019-03-20T13:58:13.994Z,70.03
2019-03-20T14:00:43.160Z,74.53
2019-03-20T14:03:12.205Z,74.00
2019-03-20T14:05:41.138Z,73.60
2019-03-20T14:08:10.388Z,80.87
2019-03-20T14:10:49.523Z,81.07
2019-03-20T14:13:10.840Z,87.33
2019-03-20T14:15:39.771Z,82.63
2019-03-20T14:18:08.764Z,74.73
2019-03-20T14:20:37.861Z,71.93
2019-03-20T14:23:07.192Z,75.60
2019-03-20T14:25:36.313Z,75.97
2019-03-20T14:28:05.794Z,68.20
2019-03-20T14:30:34.743Z,67.33
2019-03-20T14:33:05.175Z,72.50
2019-03-20T14:35:34.476Z,82.37
2019-03-20T14:38:03.923Z,78.40
2019-03-20T14:40:36.089Z,73.40
2019-03-20T14:43:04.921Z,75.53
2019-03-20T14:45:34.122Z,64.53
2019-03-20T14:48:03.152Z,72.43
2019-03-20T14:50:36.604Z,84.17
2019-03-20T14:53:05.985Z,90.13
2019-03-20T14:55:34.826Z,83.23
2019-03-20T14:58:03.761Z,85.17
2019-03-20T15:00:33.286Z,79.03
2019-03-20T15:03:02.746Z,73.10
2019-03-20T15:05:31.656Z,81.77
2019-03-20T15:08:08.531Z,76.73
2019-03-20T15:10:46.255Z,82.67
2019-03-20T15:13:14.831Z,85.03
2019-03-20T15:16:14.470Z,85.90
2019-03-20T15:18:48.368Z,82.40
2019-03-20T15:21:44.526Z,89.83
2019-03-20T15:24:32.644Z,87.07
2019-03-20T15:27:14.301Z,79.23
2019-03-20T15:29:46.950Z,82.50
2019-03-20T15:32:18.723Z,89.20
2019-03-20T15:34:51.603Z,83.97
2019-03-20T15:37:24.492Z,81.73
2019-03-20T15:40:02.369Z,84.80
2019-03-20T15:42:32.918Z,85.00
2019-03-20T15:45:08.360Z,85.90
2019-03-20T15:47:39.585Z,91.60
2019-03-20T15:50:24.446Z,87.37
2019-03-20T15:53:02.740Z,82.57
2019-03-20T15:55:34.517Z,78.47
2019-03-20T15:58:11.594Z,86.33
2019-03-20T16:00:45.907Z,81.03
2019-03-20T16:03:17.423Z,79.43
2019-03-20T16:05:48.190Z,81.30
2019-03-20T16:08:21.516Z,81.70
2019-03-20T16:11:06.687Z,81.93
2019-03-20T16:13:33.634Z,93.33
2019-03-20T16:16:03.242Z,93.83
2019-03-20T16:18:33.112Z,85.47
2019-03-20T16:21:03.680Z,89.20
2019-03-20T16:23:33.629Z,85.50
2019-03-20T16:26:03.221Z,90.87
2019-03-20T16:28:34.334Z,93.00
2019-03-20T16:31:06.728Z,86.60
2019-03-20T16:33:38.135Z,96.73
2019-03-20T16:36:11.442Z,97.33
2019-03-20T16:38:42.770Z,88.33
2019-03-20T16:41:16.768Z,100.17
2019-03-20T16:43:44.421Z,105.93
2019-03-20T16:46:16.708Z,96.07
2019-03-20T16:48:47.309Z,92.93
2019-03-20T16:51:18.946Z,100.00
2019-03-20T16:53:49.160Z,97.03
2019-03-20T16:56:22.475Z,109.23
2019-03-20T16:58:52.397Z,107.27
2019-03-20T17:01:25.495Z,108.40
2019-03-20T17:03:57.811Z,111.20
2019-03-20T17:06:37.194Z,108.33
2019-03-20T17:09:08.342Z,104.83
2019-03-20T17:11:41.910Z,107.03
2019-03-20T17:17:12.952Z,115.27
2019-03-20T17:19:55.937Z,106.90
2019-03-20T17:22:47.823Z,111.50
2019-03-20T17:25:17.569Z,117.10
2019-03-20T17:27:49.486Z,106.07
2019-03-20T17:30:21.601Z,97.43
2019-03-20T17:32:57.055Z,109.03
2019-03-20T17:35:26.191Z,111.70
2019-03-20T17:37:55.656Z,98.27
2019-03-20T17:40:25.398Z,103.67
2019-03-20T17:42:54.718Z,97.83
2019-03-20T17:45:24.117Z,103.13
2019-03-20T17:47:53.476Z,102.10
2019-03-20T17:50:25.982Z,73.67
2019-03-20T17:52:57.896Z,99.40
2019-03-20T17:55:27.219Z,99.67
2019-03-20T17:57:59.700Z,97.93
2019-03-20T18:00:36.612Z,102.63
2019-03-20T18:03:06.391Z,104.83
2019-03-20T18:05:35.998Z,110.00
2019-03-20T18:08:10.022Z,102.33
2019-03-20T18:10:39.890Z,97.30
2019-03-20T18:13:09.458Z,112.43
2019-03-20T18:15:40.613Z,99.47
2019-03-20T18:18:09.813Z,98.57
2019-03-20T18:20:41.772Z,88.93
2019-03-20T18:23:11.958Z,88.60
2019-03-20T18:25:41.628Z,98.63
2019-03-20T18:28:11.155Z,109.40
2019-03-20T18:30:40.611Z,105.40
2019-03-20T18:33:12.796Z,108.20
2019-03-20T18:38:55.263Z,101.17
2019-03-20T18:41:29.405Z,93.43
2019-03-20T18:44:06.763Z,105.67
2019-03-20T18:46:36.057Z,102.47
2019-03-20T18:49:13.477Z,100.53
2019-03-20T18:51:51.230Z,93.23
2019-03-20T18:54:23.543Z,84.33
2019-03-20T18:56:52.882Z,98.33
2019-03-20T18:59:25.499Z,99.37
2019-03-20T19:01:54.943Z,109.10
2019-03-20T19:07:05.668Z,104.60
2019-03-20T19:12:29.468Z,98.47
2019-03-20T19:14:59.208Z,100.50
2019-03-20T19:17:28.752Z,89.37
2019-03-20T19:19:58.552Z,98.00
2019-03-20T19:22:34.090Z,94.37
2019-03-20T19:25:04.165Z,107.83
2019-03-20T19:27:33.703Z,98.97
2019-03-20T19:30:05.670Z,94.43
2019-03-20T19:32:35.128Z,97.00
2019-03-20T19:35:07.710Z,102.17
2019-03-20T19:37:36.477Z,90.03
2019-03-20T19:40:07.258Z,104.27
2019-03-20T19:42:37.621Z,98.70
2019-03-20T19:45:07.554Z,99.63
2019-03-20T19:47:37.702Z,93.93
2019-03-20T19:50:10.873Z,101.27
2019-03-20T19:52:40.237Z,95.77
2019-03-20T19:55:09.887Z,98.93
2019-03-20T19:57:41.397Z,101.37
2019-03-20T20:00:16.853Z,109.57
2019-03-20T20:02:47.420Z,99.70
2019-03-20T20:05:16.840Z,112.63
2019-03-20T20:07:54.372Z,100.07
2019-03-20T20:10:25.119Z,97.97
2019-03-20T20:12:54.521Z,99.77
2019-03-20T20:15:54.135Z,101.23
2019-03-20T20:18:23.880Z,105.47
2019-03-20T20:21:37.878Z,105.37
2019-03-20T20:25:45.948Z,101.73
2019-03-20T20:26:46.774Z,104.53
2019-03-20T20:29:52.857Z,109.23
2019-03-20T20:32:25.008Z,104.87
2019-03-20T20:34:53.987Z,95.27
2019-03-20T20:37:23.029Z,101.70
2019-03-20T20:39:52.513Z,97.73
2019-03-20T20:42:42.289Z,100.87
2019-03-20T20:45:03.168Z,106.07
2019-03-20T20:47:32.714Z,107.30
2019-03-20T20:50:02.000Z,107.40
2019-03-20T20:52:31.084Z,107.80
2019-03-20T20:55:00.347Z,96.33
2019-03-20T20:57:29.690Z,96.20
2019-03-20T20:59:59.035Z,102.83
2019-03-20T21:02:28.178Z,96.53
2019-03-20T21:05:00.707Z,99.17
2019-03-20T21:07:30.106Z,104.60
2019-03-20T21:09:59.179Z,96.83
2019-03-20T21:12:28.100Z,101.43
2019-03-20T21:14:57.270Z,83.20
2019-03-20T21:17:39.827Z,97.50
2019-03-20T21:20:09.044Z,106.07
2019-03-20T21:23:18.826Z,93.20
2019-03-20T21:25:48.590Z,93.57
2019-03-20T21:29:03.321Z,107.93
2019-03-20T21:31:52.477Z,112.60
2019-03-20T21:35:21.385Z,96.43
2019-03-20T21:38:04.817Z,93.00
2019-03-20T21:41:01.112Z,98.17
2019-03-20T21:43:56.558Z,101.80
2019-03-20T21:46:46.832Z,96.17
2019-03-20T21:49:19.095Z,103.97
2019-03-20T21:51:48.893Z,103.93
2019-03-20T21:54:55.234Z,104.23
2019-03-20T21:57:47.264Z,108.03
2019-03-20T22:00:59.262Z,106.03
2019-03-20T22:03:29.328Z,97.53
2019-03-20T22:06:38.321Z,98.00
2019-03-20T22:09:31.862Z,110.27
2019-03-20T22:12:36.201Z,100.47
2019-03-20T22:15:16.650Z,99.80
2019-03-20T22:18:42.593Z,106.27
2019-03-20T22:21:41.500Z,105.53
2019-03-20T22:25:09.711Z,119.27
2019-03-20T22:28:09.890Z,112.90
2019-03-20T22:30:39.942Z,93.43
2019-03-20T22:33:45.686Z,116.20
2019-03-20T22:36:20.114Z,114.03
2019-03-20T22:39:58.598Z,114.50
2019-03-20T22:42:53.274Z,103.97
2019-03-20T22:46:12.601Z,120.57
2019-03-20T22:49:14.434Z,114.67
2019-03-20T22:52:15.145Z,119.27
2019-03-20T22:55:27.758Z,127.47
2019-03-20T23:01:56.519Z,115.13
2019-03-20T23:04:35.324Z,107.27
2019-03-20T23:07:05.317Z,112.33
2019-03-20T23:09:37.210Z,106.70
2019-03-20T23:12:10.326Z,129.80
2019-03-20T23:14:41.344Z,113.00
2019-03-20T23:17:10.920Z,105.70
2019-03-20T23:19:41.695Z,114.23
2019-03-20T23:22:12.370Z,133.40
2019-03-20T23:24:42.539Z,126.00
2019-03-20T23:27:15.769Z,131.73
2019-03-20T23:29:45.657Z,123.37
2019-03-20T23:32:15.630Z,137.67
2019-03-20T23:34:45.267Z,122.93
2019-03-20T23:37:15.848Z,127.40
2019-03-20T23:39:45.809Z,128.30
2019-03-20T23:42:15.780Z,139.60
2019-03-20T23:44:46.101Z,140.83
2019-03-20T23:47:16.166Z,132.80
2019-03-20T23:49:46.342Z,128.37
2019-03-20T23:52:16.349Z,138.17
2019-03-20T23:54:51.711Z,130.17
2019-03-20T23:57:21.248Z,117.53
2019-03-20T23:59:51.308Z,121.60
